Time;durP1;ratioP1;P1;durP2;ratioP2;P2;SDS_P1;SDS_P2;PMS_P1;PMS_P2;Temp;Humidity;BMP_temperature;BMP_pressure;BME280_temperature;BME280_humidity;BME280_pressure;Samples;Min_cycle;Max_cycle;Signal;HPM_P1;HPM_P2
2020/12/02 00:00:12;;;;;;;45.83;27.40;;;6.40;99.90;;;;;;4990217;28;20218;-82
2020/12/02 00:02:49;;;;;;;46.88;28.33;;;6.30;99.90;;;;;;4989725;28;20225;-82
2020/12/02 00:05:19;;;;;;;51.42;28.95;;;6.40;99.90;;;;;;4989424;28;20194;-84
2020/12/02 00:07:47;;;;;;;49.38;28.90;;;6.40;99.90;;;;;;4995467;28;20178;-82
2020/12/02 00:12:56;;;;;;;54.40;33.33;;;6.30;99.90;;;;;;4999999;28;20217;-83
2020/12/02 00:15:23;;;;;;;57.90;33.78;;;6.20;99.90;;;;;;5000126;28;20500;-83
2020/12/02 00:17:55;;;;;;;54.80;32.00;;;6.20;99.90;;;;;;4999983;28;20210;-82
2020/12/02 00:20:22;;;;;;;47.67;30.50;;;6.20;99.90;;;;;;4999572;28;20260;-83
2020/12/02 00:22:49;;;;;;;51.47;32.22;;;6.20;99.90;;;;;;4999393;28;20206;-83
2020/12/02 00:25:18;;;;;;;64.07;36.85;;;6.20;99.90;;;;;;4998158;28;20216;-84
2020/12/02 00:30:34;;;;;;;58.05;31.98;;;6.10;99.90;;;;;;4994917;28;20218;-83
2020/12/02 00:33:08;;;;;;;54.78;30.30;;;6.10;99.90;;;;;;4990521;28;20264;-85
2020/12/02 00:35:38;;;;;;;62.55;33.53;;;6.10;99.90;;;;;;4978930;28;20210;-83
2020/12/02 00:38:09;;;;;;;63.95;36.42;;;6.20;99.90;;;;;;4969260;29;20203;-84
2020/12/02 00:40:37;;;;;;;70.75;36.45;;;6.10;99.90;;;;;;4969475;28;20218;-84
2020/12/02 00:45:58;;;;;;;57.15;31.20;;;6.10;99.90;;;;;;4969579;28;20199;-83
2020/12/02 00:48:27;;;;;;;67.05;33.95;;;6.10;99.90;;;;;;4969539;28;20576;-84
2020/12/02 00:50:56;;;;;;;54.78;31.20;;;6.10;99.90;;;;;;4969430;28;20249;-83
2020/12/02 00:53:26;;;;;;;60.20;32.53;;;6.10;99.90;;;;;;4969261;28;20207;-83
2020/12/02 00:56:03;;;;;;;72.95;37.88;;;6.00;99.90;;;;;;4969201;29;20583;-84
2020/12/02 00:58:49;;;;;;;56.90;33.72;;;6.00;99.90;;;;;;4968892;29;20227;-83
2020/12/02 01:01:29;;;;;;;64.65;36.30;;;6.00;99.90;;;;;;4970736;28;20210;-83
2020/12/02 01:03:58;;;;;;;66.88;38.22;;;6.00;99.90;;;;;;4977345;28;20171;-83
2020/12/02 01:06:26;;;;;;;61.53;35.70;;;6.00;99.90;;;;;;4977250;28;20193;-82
2020/12/02 01:08:53;;;;;;;73.70;38.65;;;6.10;99.90;;;;;;4974134;28;20241;-83
2020/12/02 01:11:22;;;;;;;72.10;37.75;;;6.00;99.90;;;;;;4978338;28;20211;-83
2020/12/02 01:13:57;;;;;;;80.40;39.53;;;6.10;99.90;;;;;;4978590;28;20203;-83
2020/12/02 01:16:30;;;;;;;76.45;40.67;;;6.00;99.90;;;;;;4978725;29;20179;-83
2020/12/02 01:18:59;;;;;;;76.90;42.00;;;6.10;99.90;;;;;;4980102;28;20274;-84
2020/12/02 01:21:34;;;;;;;70.63;38.50;;;6.00;99.90;;;;;;4997711;28;20199;-83
2020/12/02 01:24:05;;;;;;;69.65;38.58;;;6.00;99.90;;;;;;4994688;28;20210;-84
2020/12/02 01:26:37;;;;;;;57.35;33.67;;;6.00;99.90;;;;;;4993502;28;20214;-84
2020/12/02 01:29:25;;;;;;;74.88;41.92;;;6.10;99.90;;;;;;4994033;28;20726;-83
2020/12/02 01:31:56;;;;;;;64.72;39.22;;;6.10;99.90;;;;;;4997307;28;20227;-84
2020/12/02 01:34:24;;;;;;;69.60;41.05;;;6.10;99.90;;;;;;4997117;28;20195;-82
2020/12/02 01:37:22;;;;;;;65.72;39.20;;;6.10;99.90;;;;;;4999178;28;20208;-82
2020/12/02 01:40:01;;;;;;;69.00;39.75;;;6.10;99.90;;;;;;4995099;28;20241;-83
2020/12/02 01:45:16;;;;;;;69.95;39.25;;;6.10;99.90;;;;;;4999744;28;20209;-82
2020/12/02 01:48:02;;;;;;;62.38;37.88;;;6.00;99.90;;;;;;4997101;28;20191;-82
2020/12/02 01:50:36;;;;;;;71.13;40.67;;;6.00;99.90;;;;;;4979648;29;20294;-81
2020/12/02 01:53:09;;;;;;;66.72;39.38;;;6.10;99.90;;;;;;4978809;29;20201;-82
2020/12/02 01:55:43;;;;;;;70.60;39.45;;;6.00;99.90;;;;;;4973946;29;20183;-85
2020/12/02 01:58:18;;;;;;;70.88;40.58;;;6.00;99.90;;;;;;4971892;28;20219;-83
2020/12/02 02:00:52;;;;;;;67.20;39.92;;;6.00;99.90;;;;;;5087187;23;20226;-83
2020/12/02 02:03:20;;;;;;;58.40;36.55;;;6.00;99.90;;;;;;4992067;28;20182;-84
2020/12/02 02:05:56;;;;;;;65.90;36.97;;;6.00;99.90;;;;;;4990554;28;20206;-85
2020/12/02 02:08:25;;;;;;;66.78;41.03;;;6.00;99.90;;;;;;4989473;28;20186;-85
2020/12/02 02:10:53;;;;;;;73.45;41.65;;;5.90;99.90;;;;;;4985742;28;20231;-85
2020/12/02 02:14:06;;;;;;;67.18;41.28;;;6.00;99.90;;;;;;4996663;28;20230;-85
2020/12/02 02:16:39;;;;;;;62.60;37.78;;;5.90;99.90;;;;;;4997457;28;20218;-84
2020/12/02 02:19:08;;;;;;;62.58;37.88;;;6.00;99.90;;;;;;4997324;28;20231;-85
2020/12/02 02:21:36;;;;;;;63.63;40.35;;;6.10;99.90;;;;;;4995700;28;20222;-86
2020/12/02 02:24:03;;;;;;;60.72;38.53;;;6.10;99.90;;;;;;5000107;28;20187;-86
2020/12/02 02:26:37;;;;;;;66.13;40.13;;;6.10;99.90;;;;;;4999820;28;20190;-86
2020/12/02 02:29:09;;;;;;;66.57;41.10;;;5.90;99.90;;;;;;4999369;28;20218;-85
2020/12/02 02:31:41;;;;;;;63.50;37.08;;;6.00;99.90;;;;;;4997211;28;20249;-85
2020/12/02 02:34:11;;;;;;;70.72;42.55;;;6.10;99.90;;;;;;4981308;28;20214;-84
2020/12/02 02:36:37;;;;;;;61.80;37.88;;;6.00;99.90;;;;;;4983106;28;20616;-85
2020/12/02 02:39:05;;;;;;;76.85;44.63;;;6.00;99.90;;;;;;4981875;28;20230;-85
2020/12/02 02:41:33;;;;;;;61.80;36.83;;;6.00;99.90;;;;;;4982298;28;20671;-85
2020/12/02 02:44:00;;;;;;;70.07;41.75;;;5.90;99.90;;;;;;4983186;28;20214;-85
2020/12/02 02:46:26;;;;;;;68.90;41.05;;;6.00;99.90;;;;;;4983080;28;20206;-85
2020/12/02 02:48:53;;;;;;;67.35;42.25;;;5.90;99.90;;;;;;4985999;28;20256;-85
2020/12/02 02:51:20;;;;;;;67.13;39.63;;;5.90;99.90;;;;;;4986052;28;20272;-85
2020/12/02 02:53:47;;;;;;;64.82;40.13;;;5.90;99.90;;;;;;4980457;28;20233;-84
2020/12/02 02:56:14;;;;;;;73.57;40.80;;;6.00;99.90;;;;;;4982753;28;20252;-84
2020/12/02 02:58:42;;;;;;;67.85;40.38;;;6.00;99.90;;;;;;4983768;28;20217;-85
2020/12/02 03:01:09;;;;;;;79.75;48.97;;;6.00;99.90;;;;;;4982533;28;20343;-85
2020/12/02 03:03:36;;;;;;;77.63;45.00;;;5.80;99.90;;;;;;4982802;28;20203;-85
2020/12/02 03:06:05;;;;;;;66.75;40.22;;;5.90;99.90;;;;;;4983763;28;20206;-85
2020/12/02 03:08:33;;;;;;;67.90;42.80;;;5.90;99.90;;;;;;4984172;28;20199;-86
2020/12/02 03:11:02;;;;;;;81.40;44.50;;;5.80;99.90;;;;;;4983148;28;20272;-84
2020/12/02 03:13:36;;;;;;;75.25;43.60;;;5.90;99.90;;;;;;4985450;28;20206;-85
2020/12/02 03:16:07;;;;;;;83.82;48.20;;;5.80;99.90;;;;;;4991515;28;20210;-85
2020/12/02 03:18:34;;;;;;;70.18;43.65;;;5.90;99.90;;;;;;4991613;28;20245;-84
2020/12/02 03:21:04;;;;;;;70.55;41.17;;;5.90;99.90;;;;;;4990070;28;20328;-83
2020/12/02 03:23:31;;;;;;;79.82;43.35;;;6.00;99.90;;;;;;4990569;28;20234;-84
2020/12/02 03:25:57;;;;;;;73.03;42.00;;;6.00;99.90;;;;;;4986604;28;20210;-85
2020/12/02 03:28:28;;;;;;;70.47;42.70;;;6.00;99.90;;;;;;4989557;28;20221;-84
2020/12/02 03:30:57;;;;;;;65.70;42.90;;;6.00;99.90;;;;;;4982051;28;20321;-85
2020/12/02 03:33:25;;;;;;;82.35;44.60;;;6.00;99.90;;;;;;4985392;28;20279;-85
2020/12/02 03:35:51;;;;;;;73.22;44.53;;;5.90;99.90;;;;;;4995577;28;20268;-84
2020/12/02 03:38:18;;;;;;;66.82;40.83;;;6.00;99.90;;;;;;4997222;28;20233;-84
2020/12/02 03:40:44;;;;;;;65.65;41.47;;;5.90;99.90;;;;;;4997084;28;20249;-85
2020/12/02 03:43:11;;;;;;;74.65;44.42;;;5.90;99.90;;;;;;4996620;28;20199;-85
2020/12/02 03:45:41;;;;;;;74.85;46.45;;;5.90;99.90;;;;;;4996339;28;20217;-85
2020/12/02 03:48:09;;;;;;;66.72;42.15;;;5.80;99.90;;;;;;4997447;28;20186;-85
2020/12/02 03:50:37;;;;;;;71.78;44.72;;;5.80;99.90;;;;;;4996743;28;20281;-86
2020/12/02 03:53:03;;;;;;;76.35;45.58;;;5.90;99.90;;;;;;4996649;28;20260;-85
2020/12/02 03:55:30;;;;;;;74.65;45.08;;;5.80;99.90;;;;;;4996632;28;20239;-85
2020/12/02 03:57:56;;;;;;;77.95;43.17;;;5.80;99.90;;;;;;4996486;28;20190;-86
2020/12/02 04:00:22;;;;;;;79.22;45.25;;;5.70;99.90;;;;;;4994926;28;20646;-86
2020/12/02 04:02:50;;;;;;;64.88;41.55;;;5.70;99.90;;;;;;4984017;28;20230;-85
2020/12/02 04:05:16;;;;;;;64.85;39.45;;;5.70;99.90;;;;;;4981703;28;20268;-85
2020/12/02 04:07:44;;;;;;;61.03;41.58;;;5.70;99.90;;;;;;4985888;28;20206;-87
2020/12/02 04:10:11;;;;;;;62.88;40.13;;;5.70;99.90;;;;;;4985765;28;20229;-85
2020/12/02 04:12:37;;;;;;;67.38;42.35;;;5.70;99.90;;;;;;4985648;28;20253;-85
2020/12/02 04:15:04;;;;;;;76.88;45.75;;;5.70;99.90;;;;;;4983111;28;20623;-84
2020/12/02 04:17:31;;;;;;;73.85;44.33;;;5.70;99.90;;;;;;4982711;28;20207;-84
2020/12/02 04:19:58;;;;;;;60.38;40.40;;;5.80;99.90;;;;;;4982628;28;20222;-83
2020/12/02 04:22:24;;;;;;;70.28;43.05;;;5.80;99.90;;;;;;4987643;28;20190;-83
2020/12/02 04:24:52;;;;;;;73.63;44.13;;;5.70;99.90;;;;;;4990094;28;20234;-85
2020/12/02 04:27:18;;;;;;;69.05;41.08;;;5.70;99.90;;;;;;4990045;28;20229;-84
2020/12/02 04:29:45;;;;;;;61.22;40.08;;;5.70;99.90;;;;;;4986497;28;20218;-85
2020/12/02 04:32:12;;;;;;;75.97;43.08;;;5.70;99.90;;;;;;4993982;28;20237;-85
2020/12/02 04:34:38;;;;;;;68.93;42.55;;;5.70;99.90;;;;;;4994702;28;20226;-85
2020/12/02 04:37:05;;;;;;;64.18;42.03;;;5.70;99.90;;;;;;4994448;28;20198;-86
2020/12/02 04:39:32;;;;;;;70.47;42.05;;;5.70;99.90;;;;;;4992817;28;20261;-84
2020/12/02 04:41:59;;;;;;;67.32;44.92;;;5.80;99.90;;;;;;4995423;28;20221;-84
2020/12/02 04:44:26;;;;;;;66.80;43.42;;;5.80;99.90;;;;;;4994494;28;20233;-84
2020/12/02 04:46:54;;;;;;;70.82;42.40;;;5.80;99.90;;;;;;4993990;28;20257;-85
2020/12/02 04:49:24;;;;;;;66.40;42.95;;;5.70;99.90;;;;;;4993913;28;20249;-85
2020/12/02 04:51:54;;;;;;;62.65;41.05;;;5.80;99.90;;;;;;4993264;28;20198;-85
2020/12/02 04:54:21;;;;;;;57.50;38.35;;;5.80;99.90;;;;;;4996141;28;20202;-86
2020/12/02 04:56:49;;;;;;;63.72;40.78;;;5.80;99.90;;;;;;4993858;28;20210;-85
2020/12/02 04:59:17;;;;;;;62.35;41.47;;;5.80;99.90;;;;;;4999683;28;20232;-86
2020/12/02 05:01:49;;;;;;;62.33;39.83;;;5.80;99.90;;;;;;5000933;28;20249;-86
2020/12/02 05:04:18;;;;;;;58.05;38.42;;;5.80;99.90;;;;;;5001386;28;20218;-86
2020/12/02 05:06:47;;;;;;;62.15;41.72;;;5.90;99.90;;;;;;5001620;28;20202;-85
2020/12/02 05:09:21;;;;;;;50.95;36.90;;;5.90;99.90;;;;;;5001875;28;20210;-85
2020/12/02 05:11:58;;;;;;;55.40;37.88;;;5.90;99.90;;;;;;5002027;28;20217;-85
2020/12/02 05:14:33;;;;;;;52.40;36.90;;;5.90;99.90;;;;;;5002198;28;20201;-85
2020/12/02 05:17:20;;;;;;;55.85;38.40;;;5.90;99.90;;;;;;5001999;28;20253;-86
2020/12/02 05:19:48;;;;;;;55.42;37.75;;;5.80;99.90;;;;;;5001815;28;20226;-87
2020/12/02 05:22:17;;;;;;;62.08;39.15;;;5.80;99.90;;;;;;5001630;28;20182;-86
2020/12/02 05:24:47;;;;;;;53.97;36.67;;;5.80;99.90;;;;;;4998909;28;20206;-85
2020/12/02 05:27:18;;;;;;;49.88;34.65;;;5.80;99.90;;;;;;4992280;28;20229;-85
2020/12/02 05:29:53;;;;;;;61.20;39.20;;;5.80;99.90;;;;;;4991343;28;20257;-85
2020/12/02 05:32:22;;;;;;;59.13;39.47;;;5.80;99.90;;;;;;4989709;28;20201;-84
2020/12/02 05:34:49;;;;;;;60.85;41.03;;;5.70;99.90;;;;;;4988957;28;20210;-86
2020/12/02 05:37:27;;;;;;;57.47;39.42;;;5.80;99.90;;;;;;4990519;28;20210;-85
2020/12/02 05:39:58;;;;;;;59.95;40.25;;;5.80;99.90;;;;;;4988183;28;20446;-87
2020/12/02 05:42:31;;;;;;;63.83;40.58;;;5.80;99.90;;;;;;4986428;28;20223;-84
2020/12/02 05:45:05;;;;;;;61.13;41.60;;;5.90;99.90;;;;;;4987535;28;20290;-85
2020/12/02 05:47:37;;;;;;;52.88;40.67;;;5.90;99.90;;;;;;4993262;28;20461;-87
2020/12/02 05:50:10;;;;;;;50.53;35.33;;;5.90;99.90;;;;;;4986985;28;20614;-86
2020/12/02 05:52:38;;;;;;;52.38;36.72;;;5.90;99.90;;;;;;4988984;28;20191;-88
2020/12/02 05:55:10;;;;;;;64.78;42.40;;;5.90;99.90;;;;;;4989336;28;20250;-87
2020/12/02 05:57:41;;;;;;;57.35;39.72;;;5.90;99.90;;;;;;4988304;28;20221;-82
2020/12/02 06:00:09;;;;;;;52.70;37.85;;;5.90;99.90;;;;;;4988085;28;20234;-87
2020/12/02 06:02:37;;;;;;;49.25;36.88;;;5.90;99.90;;;;;;4987350;28;20230;-85
2020/12/02 06:05:10;;;;;;;60.78;39.90;;;5.90;99.90;;;;;;4984530;28;20199;-85
2020/12/02 06:07:47;;;;;;;55.92;38.80;;;6.00;99.90;;;;;;4986169;28;20202;-87
2020/12/02 06:10:15;;;;;;;51.30;35.15;;;6.00;99.90;;;;;;4993839;28;20294;-85
2020/12/02 06:12:43;;;;;;;52.70;38.03;;;6.00;99.90;;;;;;4985556;28;20198;-85
2020/12/02 06:15:19;;;;;;;55.92;38.78;;;6.00;99.90;;;;;;4983565;28;20282;-88
2020/12/02 06:17:50;;;;;;;57.65;40.10;;;6.00;99.90;;;;;;4985009;28;20194;-88
2020/12/02 06:20:17;;;;;;;52.08;36.85;;;6.00;99.90;;;;;;4984698;28;20282;-86
2020/12/02 06:22:49;;;;;;;51.58;37.65;;;6.00;99.90;;;;;;4985548;28;20207;-86
2020/12/02 06:25:45;;;;;;;53.42;37.53;;;6.00;99.90;;;;;;4984238;28;20257;-85
2020/12/02 06:28:12;;;;;;;60.83;40.80;;;6.00;99.90;;;;;;4994828;28;20266;-88
2020/12/02 06:30:41;;;;;;;54.28;38.05;;;5.90;99.90;;;;;;4998595;28;20226;-88
2020/12/02 06:33:19;;;;;;;59.38;38.65;;;5.90;99.90;;;;;;4998194;28;20206;-88
2020/12/02 06:35:57;;;;;;;56.38;36.25;;;5.90;99.90;;;;;;4991683;28;20189;-86
2020/12/02 06:38:30;;;;;;;57.25;38.92;;;5.90;99.90;;;;;;4988175;28;20202;-86
2020/12/02 06:41:30;;;;;;;53.75;37.35;;;5.90;99.90;;;;;;4985189;28;20226;-86
2020/12/02 06:44:39;;;;;;;52.30;36.28;;;5.90;99.90;;;;;;4983302;28;20213;-88
2020/12/02 06:47:25;;;;;;;54.53;36.58;;;6.00;99.90;;;;;;4981383;28;20290;-87
2020/12/02 06:50:11;;;;;;;59.28;40.10;;;5.90;99.90;;;;;;4982853;28;20237;-87
2020/12/02 06:52:38;;;;;;;46.88;32.70;;;5.90;99.90;;;;;;4983064;28;20221;-87
2020/12/02 06:55:13;;;;;;;57.10;38.83;;;6.00;99.90;;;;;;4981162;28;20218;-87
2020/12/02 06:57:40;;;;;;;53.50;38.00;;;5.90;99.90;;;;;;4987732;28;20225;-86
2020/12/02 07:00:13;;;;;;;64.05;40.08;;;6.00;99.90;;;;;;4995599;28;20234;-88
2020/12/02 07:02:45;;;;;;;59.08;41.65;;;6.00;99.90;;;;;;4997637;28;20531;-86
2020/12/02 07:05:20;;;;;;;55.80;39.88;;;5.90;99.90;;;;;;4998210;28;20253;-87
2020/12/02 07:07:47;;;;;;;60.55;41.45;;;5.90;99.90;;;;;;4998640;28;20170;-87
2020/12/02 07:10:19;;;;;;;51.22;34.65;;;6.00;99.90;;;;;;4997817;28;20234;-86
2020/12/02 07:12:45;;;;;;;55.28;36.58;;;6.00;99.90;;;;;;4998486;28;20194;-88
2020/12/02 07:15:14;;;;;;;63.65;37.35;;;6.00;99.90;;;;;;4998593;28;20217;-86
2020/12/02 07:17:42;;;;;;;59.08;37.35;;;6.10;99.90;;;;;;4992091;28;20214;-88
2020/12/02 07:20:14;;;;;;;49.50;35.90;;;6.10;99.90;;;;;;4975685;28;20222;-86
2020/12/02 07:22:47;;;;;;;52.15;37.42;;;6.00;99.90;;;;;;4989831;28;20280;-87
2020/12/02 07:25:13;;;;;;;65.75;40.88;;;6.10;99.90;;;;;;4989743;28;20253;-87
2020/12/02 07:27:42;;;;;;;73.28;38.83;;;6.00;99.90;;;;;;4982063;28;20210;-87
2020/12/02 07:30:18;;;;;;;59.90;39.35;;;6.00;99.90;;;;;;4982912;28;20226;-88
2020/12/02 07:32:46;;;;;;;53.05;35.35;;;6.00;99.90;;;;;;4981871;28;20186;-86
2020/12/02 07:35:16;;;;;;;67.30;39.50;;;6.00;99.90;;;;;;4984480;28;20202;-86
2020/12/02 07:37:42;;;;;;;56.45;37.78;;;6.00;99.90;;;;;;4984325;28;20190;-87
2020/12/02 07:40:28;;;;;;;52.20;37.38;;;6.00;99.90;;;;;;4985303;28;20233;-86
2020/12/02 07:42:56;;;;;;;51.83;37.00;;;6.00;99.90;;;;;;4986225;28;20257;-87
2020/12/02 07:45:26;;;;;;;57.45;37.00;;;6.10;99.90;;;;;;4985969;28;20202;-87
2020/12/02 07:47:56;;;;;;;61.95;37.95;;;6.00;99.90;;;;;;4985991;28;20253;-87
2020/12/02 07:50:29;;;;;;;56.97;37.88;;;6.00;99.90;;;;;;4988006;28;20619;-87
2020/12/02 07:53:02;;;;;;;53.58;35.70;;;6.10;99.90;;;;;;4991967;28;20242;-87
2020/12/02 07:55:36;;;;;;;61.55;38.20;;;6.00;99.90;;;;;;4991508;28;20191;-87
2020/12/02 07:58:03;;;;;;;52.33;36.70;;;6.00;99.90;;;;;;4991151;28;20225;-86
2020/12/02 08:00:37;;;;;;;52.00;37.25;;;6.00;99.90;;;;;;4984795;28;20230;-87
2020/12/02 08:03:05;;;;;;;62.22;37.75;;;6.00;99.90;;;;;;4991334;28;20222;-86
2020/12/02 08:05:49;;;;;;;54.05;36.38;;;5.90;99.90;;;;;;4993870;28;20234;-87
2020/12/02 08:08:15;;;;;;;52.10;33.78;;;5.90;99.90;;;;;;4991346;28;20191;-88
2020/12/02 08:10:42;;;;;;;49.50;35.00;;;5.90;99.90;;;;;;4991427;28;20234;-87
2020/12/02 08:13:16;;;;;;;54.38;37.72;;;5.90;99.90;;;;;;4992480;28;20245;-87
2020/12/02 08:15:50;;;;;;;45.13;34.38;;;5.90;99.90;;;;;;4988870;28;20207;-86
2020/12/02 08:18:20;;;;;;;54.67;35.53;;;6.00;99.90;;;;;;4990008;28;20218;-86
2020/12/02 08:20:47;;;;;;;54.60;38.47;;;6.00;99.90;;;;;;4992360;28;20219;-87
2020/12/02 08:23:21;;;;;;;55.50;37.70;;;6.00;99.90;;;;;;4991837;28;20218;-86
2020/12/02 08:25:55;;;;;;;45.67;33.78;;;6.00;99.90;;;;;;4993860;28;20206;-87
2020/12/02 08:28:25;;;;;;;51.33;37.70;;;6.00;99.90;;;;;;4991651;28;20182;-88
2020/12/02 08:31:04;;;;;;;56.67;38.08;;;6.00;99.90;;;;;;4995495;28;20218;-88
2020/12/02 08:33:30;;;;;;;52.13;36.25;;;6.00;99.90;;;;;;4995981;28;20190;-88
2020/12/02 08:36:06;;;;;;;48.22;36.50;;;6.00;99.90;;;;;;4996100;28;20202;-87
2020/12/02 08:38:35;;;;;;;48.65;34.03;;;6.10;99.90;;;;;;4992359;28;20285;-87
2020/12/02 08:41:02;;;;;;;50.58;35.30;;;6.10;99.90;;;;;;4992364;28;20301;-87
2020/12/02 08:43:39;;;;;;;46.92;32.63;;;6.10;99.90;;;;;;4993302;28;20220;-86
2020/12/02 08:46:22;;;;;;;52.83;35.85;;;6.10;99.90;;;;;;4992963;28;20209;-87
2020/12/02 08:48:52;;;;;;;49.25;34.30;;;6.10;99.90;;;;;;4982247;28;20210;-86
2020/12/02 08:51:21;;;;;;;53.08;34.13;;;6.10;99.90;;;;;;4986490;28;20222;-86
2020/12/02 08:53:49;;;;;;;50.10;37.33;;;6.10;99.90;;;;;;4990662;28;20269;-86
2020/12/02 08:56:37;;;;;;;52.80;35.58;;;5.90;99.90;;;;;;4993075;28;20211;-87
2020/12/02 08:59:06;;;;;;;47.65;34.20;;;5.90;99.90;;;;;;4988468;28;20229;-86
2020/12/02 09:01:33;;;;;;;45.35;30.65;;;6.00;99.90;;;;;;4992703;28;20210;-86
2020/12/02 09:03:59;;;;;;;42.35;30.83;;;6.10;99.90;;;;;;4987567;28;20210;-86
2020/12/02 09:06:26;;;;;;;46.72;32.95;;;6.10;99.90;;;;;;4987936;28;20234;-87
2020/12/02 09:08:53;;;;;;;47.10;31.63;;;6.20;99.90;;;;;;4986199;28;20362;-86
2020/12/02 09:11:26;;;;;;;45.75;34.50;;;6.30;99.90;;;;;;4987103;28;20222;-87
2020/12/02 09:13:54;;;;;;;48.85;32.67;;;6.30;99.90;;;;;;4986927;28;20726;-87
2020/12/02 09:16:23;;;;;;;47.05;34.00;;;6.30;99.90;;;;;;4991721;28;20590;-88
2020/12/02 09:18:51;;;;;;;43.17;30.83;;;6.30;99.90;;;;;;4991436;28;20213;-86
2020/12/02 09:21:18;;;;;;;48.25;32.15;;;6.30;99.90;;;;;;4991695;28;20262;-86
2020/12/02 09:23:45;;;;;;;44.05;31.92;;;6.30;99.90;;;;;;4991352;28;20222;-86
2020/12/02 09:26:16;;;;;;;44.65;33.08;;;6.30;99.90;;;;;;4991130;28;20202;-86
2020/12/02 09:28:42;;;;;;;49.80;34.80;;;6.40;99.90;;;;;;4991215;28;20187;-87
2020/12/02 09:31:09;;;;;;;50.20;32.10;;;6.40;99.90;;;;;;4996483;28;20238;-87
2020/12/02 09:33:36;;;;;;;45.95;30.85;;;6.40;99.90;;;;;;4995112;28;20238;-86
2020/12/02 09:36:03;;;;;;;41.47;30.48;;;6.30;99.90;;;;;;4991541;28;20251;-87
2020/12/02 09:38:29;;;;;;;46.17;33.85;;;6.30;99.90;;;;;;4993056;28;20230;-87
2020/12/02 09:41:01;;;;;;;45.75;34.55;;;6.30;99.90;;;;;;4997464;28;20223;-89
2020/12/02 09:43:42;;;;;;;44.92;31.98;;;6.30;99.90;;;;;;4994310;28;20270;-87
2020/12/02 09:46:15;;;;;;;50.95;35.05;;;6.30;99.90;;;;;;4994973;28;20198;-86
2020/12/02 09:48:42;;;;;;;50.95;34.03;;;6.40;99.90;;;;;;4991996;28;20261;-86
2020/12/02 09:51:20;;;;;;;43.83;33.15;;;6.40;99.90;;;;;;4991149;28;20222;-86
2020/12/02 09:53:48;;;;;;;50.80;35.15;;;6.40;99.90;;;;;;4991901;28;20203;-86
2020/12/02 09:56:15;;;;;;;45.00;32.17;;;6.30;99.90;;;;;;4991427;28;20276;-86
2020/12/02 09:58:41;;;;;;;49.35;35.95;;;6.30;99.90;;;;;;4991522;28;20428;-87
2020/12/02 10:01:14;;;;;;;55.55;35.15;;;6.30;99.90;;;;;;4990285;28;20293;-86
2020/12/02 10:04:08;;;;;;;50.72;36.65;;;6.20;99.90;;;;;;4989434;28;20214;-86
2020/12/02 10:07:04;;;;;;;42.33;33.05;;;6.10;99.90;;;;;;4970713;29;20222;-86
2020/12/02 10:10:05;;;;;;;49.38;34.97;;;6.10;99.90;;;;;;4978896;28;20211;-86
2020/12/02 10:12:48;;;;;;;51.30;33.20;;;6.00;99.90;;;;;;4979978;28;20246;-86
2020/12/02 10:15:45;;;;;;;48.47;35.55;;;6.10;99.90;;;;;;4980366;28;20255;-87
2020/12/02 10:18:46;;;;;;;45.20;32.45;;;6.10;99.90;;;;;;4981988;28;20210;-87
2020/12/02 10:21:33;;;;;;;49.83;35.40;;;6.20;99.90;;;;;;4992002;28;20209;-86
2020/12/02 10:24:11;;;;;;;43.80;32.00;;;6.20;99.90;;;;;;4991238;28;20202;-86
2020/12/02 10:27:07;;;;;;;45.92;32.90;;;6.30;99.90;;;;;;4993010;28;20190;-86
2020/12/02 10:29:45;;;;;;;48.20;34.38;;;6.20;99.90;;;;;;4995965;28;20254;-87
2020/12/02 10:32:35;;;;;;;45.63;33.00;;;6.10;99.90;;;;;;4995338;28;20277;-87
2020/12/02 10:35:05;;;;;;;41.13;29.98;;;6.10;99.90;;;;;;4996923;28;20241;-86
2020/12/02 10:37:35;;;;;;;46.45;35.00;;;6.10;99.90;;;;;;4996760;28;20194;-88
2020/12/02 10:40:03;;;;;;;51.92;34.50;;;6.00;99.90;;;;;;4995939;28;20257;-87
2020/12/02 10:42:41;;;;;;;48.33;33.03;;;6.10;99.90;;;;;;4997861;28;20264;-87
2020/12/02 10:45:10;;;;;;;51.53;35.75;;;6.10;99.90;;;;;;4994830;28;20210;-89
2020/12/02 10:48:24;;;;;;;45.42;32.15;;;6.10;99.90;;;;;;4994334;28;20206;-87
2020/12/02 10:50:52;;;;;;;44.55;32.13;;;6.10;99.90;;;;;;4992457;28;20226;-87
2020/12/02 10:53:21;;;;;;;44.60;32.65;;;6.10;99.90;;;;;;4992533;28;20198;-87
2020/12/02 10:55:47;;;;;;;47.25;31.20;;;6.10;99.90;;;;;;4991832;28;20202;-88
2020/12/02 10:58:18;;;;;;;46.63;33.38;;;6.00;99.90;;;;;;4991696;28;20194;-86
2020/12/02 11:00:47;;;;;;;49.05;33.75;;;6.00;99.90;;;;;;4989594;28;20237;-88
2020/12/02 11:03:18;;;;;;;48.17;33.97;;;6.00;99.90;;;;;;4997673;28;20269;-88
2020/12/02 11:05:53;;;;;;;49.25;32.28;;;6.00;99.90;;;;;;4997911;28;20194;-86
2020/12/02 11:08:30;;;;;;;42.88;33.15;;;6.00;99.90;;;;;;4990006;28;20252;-88
2020/12/02 11:11:09;;;;;;;46.42;33.90;;;6.00;99.90;;;;;;4988681;28;20301;-86
2020/12/02 11:13:48;;;;;;;48.90;35.20;;;5.90;99.90;;;;;;4991214;28;20202;-86
2020/12/02 11:16:25;;;;;;;48.63;34.75;;;6.00;99.90;;;;;;4992349;28;20198;-85
2020/12/02 11:19:14;;;;;;;54.45;37.45;;;6.00;99.90;;;;;;4990569;28;20285;-86
2020/12/02 11:22:00;;;;;;;48.38;35.47;;;6.00;99.90;;;;;;4985285;28;20194;-86
2020/12/02 11:24:46;;;;;;;50.67;36.30;;;6.00;99.90;;;;;;4991293;28;20222;-88
2020/12/02 11:27:13;;;;;;;50.63;34.28;;;6.00;99.90;;;;;;4990604;28;20179;-86
2020/12/02 11:29:40;;;;;;;46.85;34.92;;;6.00;99.90;;;;;;4989450;28;20238;-86
2020/12/02 11:32:38;;;;;;;47.17;35.92;;;6.00;99.90;;;;;;4987894;28;20218;-86
2020/12/02 11:35:22;;;;;;;48.08;34.92;;;6.10;99.90;;;;;;4987419;28;20194;-86
2020/12/02 11:38:00;;;;;;;46.85;34.40;;;6.00;99.90;;;;;;4988117;28;20580;-86
2020/12/02 11:40:31;;;;;;;48.63;34.50;;;6.10;99.90;;;;;;4988644;28;20257;-87
2020/12/02 11:43:05;;;;;;;52.63;38.15;;;6.10;99.90;;;;;;4987976;28;20217;-86
2020/12/02 11:45:36;;;;;;;48.45;36.65;;;6.10;99.90;;;;;;4986759;28;20240;-87
2020/12/02 11:48:11;;;;;;;54.97;36.05;;;5.80;99.90;;;;;;4989954;28;20242;-87
2020/12/02 11:50:44;;;;;;;49.38;35.30;;;6.00;99.90;;;;;;4992295;28;20252;-88
2020/12/02 11:53:38;;;;;;;51.50;36.45;;;6.00;99.90;;;;;;4994863;28;20206;-87
2020/12/02 11:56:05;;;;;;;51.42;37.05;;;6.00;99.90;;;;;;4997637;28;20221;-88
2020/12/02 11:58:33;;;;;;;52.13;36.80;;;5.90;99.90;;;;;;4997321;28;20253;-87
2020/12/02 12:01:09;;;;;;;53.63;37.33;;;5.90;99.90;;;;;;4997890;28;20218;-86
2020/12/02 12:03:41;;;;;;;57.45;39.90;;;5.90;99.90;;;;;;4996845;28;20198;-87
2020/12/02 12:06:11;;;;;;;50.80;37.15;;;5.90;99.90;;;;;;4998040;28;20183;-87
2020/12/02 12:08:46;;;;;;;60.63;38.75;;;5.90;99.90;;;;;;4997371;28;20237;-86
2020/12/02 12:11:24;;;;;;;55.47;39.45;;;5.90;99.90;;;;;;4993620;28;20237;-88
2020/12/02 12:13:55;;;;;;;55.10;38.60;;;5.90;99.90;;;;;;4984706;28;20194;-88
2020/12/02 12:16:30;;;;;;;59.42;41.78;;;5.80;99.90;;;;;;4984884;28;20264;-86
2020/12/02 12:19:02;;;;;;;64.63;45.67;;;5.80;99.90;;;;;;4985406;28;20834;-87
2020/12/02 12:21:36;;;;;;;50.17;37.58;;;5.80;99.90;;;;;;4970934;28;20206;-87
2020/12/02 12:24:07;;;;;;;50.65;39.15;;;5.80;99.90;;;;;;4985849;28;20202;-87
2020/12/02 12:26:39;;;;;;;52.13;36.03;;;5.80;99.90;;;;;;4987529;28;20214;-86
2020/12/02 12:29:08;;;;;;;47.70;35.85;;;5.70;99.90;;;;;;4989118;28;20214;-87
2020/12/02 12:31:43;;;;;;;51.55;37.10;;;5.80;99.90;;;;;;4985965;28;20226;-87
2020/12/02 12:34:23;;;;;;;59.58;40.35;;;5.80;99.90;;;;;;4986568;28;20209;-85
2020/12/02 12:36:52;;;;;;;57.30;39.03;;;5.80;99.90;;;;;;4988828;28;20194;-88
2020/12/02 12:39:24;;;;;;;59.72;40.10;;;5.70;99.90;;;;;;4988561;28;20226;-86
2020/12/02 12:41:53;;;;;;;52.10;39.22;;;5.70;99.90;;;;;;4984568;28;20214;-87
2020/12/02 12:44:27;;;;;;;51.03;36.55;;;5.80;99.90;;;;;;4987175;28;20202;-87
2020/12/02 12:47:02;;;;;;;49.55;35.90;;;5.80;99.90;;;;;;4991247;28;20228;-86
2020/12/02 12:49:30;;;;;;;49.83;33.63;;;5.80;99.90;;;;;;4987449;28;20218;-86
2020/12/02 12:51:58;;;;;;;61.65;39.75;;;5.80;99.90;;;;;;4985196;28;20654;-86
2020/12/02 12:54:25;;;;;;;59.33;38.95;;;5.80;99.90;;;;;;4984816;28;20214;-85
2020/12/02 12:56:55;;;;;;;57.42;42.78;;;5.80;99.90;;;;;;4984025;28;20238;-87
2020/12/02 12:59:22;;;;;;;55.75;41.25;;;5.80;99.90;;;;;;4985144;28;20616;-87
2020/12/02 13:01:51;;;;;;;55.05;40.72;;;5.80;99.90;;;;;;4985718;28;20190;-86
2020/12/02 13:04:21;;;;;;;52.20;36.30;;;5.80;99.90;;;;;;4995074;28;20225;-87
2020/12/02 13:07:07;;;;;;;55.20;38.35;;;5.80;99.90;;;;;;4988677;28;20221;-86
2020/12/02 13:09:53;;;;;;;56.03;37.75;;;5.80;99.90;;;;;;4987880;28;20230;-88
2020/12/02 13:12:27;;;;;;;57.28;39.88;;;5.80;99.90;;;;;;4992160;28;20214;-87